Aurora, SD (57002)

5:00 PM CST on January 19, 2018 (GMT -0600)
Aurora | | Change Station
Active Advisory: Winter Storm Watch

Elev 1634 ft 44.29 °N, 96.68 °W | Updated 21 seconds ago

Mostly Cloudy
Mostly Cloudy
42.6 °F
Feels Like 43 °F
N
0.0
Wind Variable Wind from SW
Gusts 0.0 mph

Today
High -- | Low -- °F
--% Chance of Precip.
Yesterday
High -- | Low -- °F
Precip. -- in
Pressure 29.70 in
Visibility 10.0 miles
Clouds Clear
Windchill 43 °F
Dew Point 29 °F
Humidity 59%
Rainfall 0.00 in
Snow Depth Not available.
7:56 AM 5:18 PM
Waxing Crescent, 7% visible
METAR KBKX 192256Z AUTO 29006KT 10SM CLR 04/00 A2962 RMK AO2 SLP057 T00440000
Pressure 29.70 in
Visibility 10.0 miles
Clouds Clear
Windchill 43 °F
Dew Point 29 °F
Humidity 59%
Rainfall 0.00 in
Snow Depth Not available.
7:56 AM 5:18 PM
Waxing Crescent, 7% visible
METAR KBKX 192256Z AUTO 29006KT 10SM CLR 04/00 A2962 RMK AO2 SLP057 T00440000

Get Your Daily Forecast Email!

Thanks for signing up!

Be on the lookout for a verification email in your inbox.

You'll start receiving severe weather alerts in your inbox..

×

10-Day Weather Forecast

Almanac

Astronomy

Jan. 19, 2018 Rise Set
Actual Time
Civil Twilight
Nautical Twilight
Astronomical Twilight
Moon
Length of Visible Light
Length of Day
Tomorrow will be .
, % of the Moon is Illuminated

Today's Extremes

State Highs State Lows

Community

WunderPhotos

Category 6

Welcome to Category 6. This is the collective home for Weather Underground's featured writeups by Dr. Jeff Masters (right), Bob Henson (left), Chris Burt, and other regular contributors.

Nearby

Air Quality

  Air Quality AQ Index Pollutant
Not available.

Snow Depth

Station Depth Elevation

Earthquake Activity

City Distance Mag. Time & Date
Minimum magnitude displayed is 2.5.

Coastal Water Temperatures

Place Temperature

Stations

Nearby Weather Stations

Station Location Temp. Windchill Dew Point Humidity Wind Precip. Elev Updated Type
                   

Watches & Warnings

Winter Storm Watch
Issued: 3:05 PM CST Jan. 19, 2018 – National Weather Service

... Winter Storm Watch remains in effect from Sunday afternoon
through Monday morning...

* what... heavy snow possible. Plan on difficult travel
conditions, including during the morning commute on Monday.
Total snow accumulations of 6 to 9 inches, with localized
amounts up to 11 inches, are possible.

* Where... portions of east central and southeast South Dakota,
northeast Nebraska and northwest and west central Iowa.

* When... from Sunday afternoon through Monday morning.

* Additional details... significant reductions in visibility are
possible.

Precautionary/preparedness actions...

A Winter Storm Watch means there is potential for significant
snow, sleet or ice accumulations that may impact travel. Continue
to monitor the latest forecasts.